sensor_id;sensor_type;location;lat;lon;timestamp;pressure;altitude;pressure_sealevel;temperature;humidity
67840;BME280;54636;51.684;5.142;2023-05-20T00:00:45;102427.34;;;11.59;82.20
67840;BME280;54636;51.684;5.142;2023-05-20T00:03:14;102450.06;;;11.65;82.50
67840;BME280;54636;51.684;5.142;2023-05-20T00:05:40;102448.84;;;11.66;82.39
67840;BME280;54636;51.684;5.142;2023-05-20T00:08:05;102459.44;;;11.64;82.88
67840;BME280;54636;51.684;5.142;2023-05-20T00:10:34;102446.84;;;11.58;83.33
67840;BME280;54636;51.684;5.142;2023-05-20T00:12:59;102444.41;;;11.50;83.42
67840;BME280;54636;51.684;5.142;2023-05-20T00:15:25;102461.34;;;11.54;83.63
67840;BME280;54636;51.684;5.142;2023-05-20T00:17:51;102453.31;;;11.51;84.09
67840;BME280;54636;51.684;5.142;2023-05-20T00:20:16;102452.25;;;11.48;84.45
67840;BME280;54636;51.684;5.142;2023-05-20T00:22:42;102449.34;;;11.43;84.47
67840;BME280;54636;51.684;5.142;2023-05-20T00:25:07;102454.34;;;11.44;84.56
67840;BME280;54636;51.684;5.142;2023-05-20T00:27:33;102454.59;;;11.37;85.31
67840;BME280;54636;51.684;5.142;2023-05-20T00:29:58;102452.91;;;11.31;85.47
67840;BME280;54636;51.684;5.142;2023-05-20T00:32:24;102452.28;;;11.27;85.85
67840;BME280;54636;51.684;5.142;2023-05-20T00:34:59;102459.56;;;11.30;85.39
67840;BME280;54636;51.684;5.142;2023-05-20T00:37:26;102454.69;;;11.25;86.08
67840;BME280;54636;51.684;5.142;2023-05-20T00:39:51;102458.72;;;11.20;86.44
67840;BME280;54636;51.684;5.142;2023-05-20T00:42:23;102455.69;;;11.18;86.45
67840;BME280;54636;51.684;5.142;2023-05-20T00:44:51;102454.19;;;11.17;87.04
67840;BME280;54636;51.684;5.142;2023-05-20T00:47:17;102445.72;;;11.15;86.92
67840;BME280;54636;51.684;5.142;2023-05-20T00:49:44;102441.72;;;11.07;87.13
67840;BME280;54636;51.684;5.142;2023-05-20T00:52:14;102449.75;;;11.10;87.26
67840;BME280;54636;51.684;5.142;2023-05-20T00:54:40;102436.44;;;11.03;87.74
67840;BME280;54636;51.684;5.142;2023-05-20T00:57:06;102431.44;;;11.02;88.21
67840;BME280;54636;51.684;5.142;2023-05-20T00:59:34;102439.59;;;11.02;88.37
67840;BME280;54636;51.684;5.142;2023-05-20T01:02:04;102438.53;;;10.99;87.85
67840;BME280;54636;51.684;5.142;2023-05-20T01:04:31;102433.22;;;10.96;88.10
67840;BME280;54636;51.684;5.142;2023-05-20T01:07:02;102425.00;;;10.86;88.56
67840;BME280;54636;51.684;5.142;2023-05-20T01:09:29;102442.25;;;10.93;88.78
67840;BME280;54636;51.684;5.142;2023-05-20T01:12:08;102431.97;;;10.87;88.65
67840;BME280;54636;51.684;5.142;2023-05-20T01:14:42;102431.06;;;10.91;88.70
67840;BME280;54636;51.684;5.142;2023-05-20T01:17:11;102428.16;;;10.85;89.14
67840;BME280;54636;51.684;5.142;2023-05-20T01:19:42;102428.72;;;10.80;89.46
67840;BME280;54636;51.684;5.142;2023-05-20T01:22:09;102431.44;;;10.80;89.92
67840;BME280;54636;51.684;5.142;2023-05-20T01:24:43;102427.34;;;10.75;89.91
67840;BME280;54636;51.684;5.142;2023-05-20T01:27:09;102432.00;;;10.75;90.13
67840;BME280;54636;51.684;5.142;2023-05-20T01:29:39;102420.94;;;10.69;90.17
67840;BME280;54636;51.684;5.142;2023-05-20T01:32:07;102414.88;;;10.65;89.99
67840;BME280;54636;51.684;5.142;2023-05-20T01:34:34;102414.25;;;10.61;90.18
67840;BME280;54636;51.684;5.142;2023-05-20T01:37:03;102414.56;;;10.63;90.87
67840;BME280;54636;51.684;5.142;2023-05-20T01:39:30;102423.47;;;10.64;90.61
67840;BME280;54636;51.684;5.142;2023-05-20T01:41:58;102422.19;;;10.55;91.41
67840;BME280;54636;51.684;5.142;2023-05-20T01:44:24;102408.63;;;10.55;91.65
67840;BME280;54636;51.684;5.142;2023-05-20T01:46:50;102423.84;;;10.53;91.72
67840;BME280;54636;51.684;5.142;2023-05-20T01:49:17;102415.16;;;10.45;92.03
67840;BME280;54636;51.684;5.142;2023-05-20T01:51:42;102403.63;;;10.32;92.65
67840;BME280;54636;51.684;5.142;2023-05-20T01:54:07;102411.06;;;10.41;92.26
67840;BME280;54636;51.684;5.142;2023-05-20T01:56:33;102406.97;;;10.36;92.86
67840;BME280;54636;51.684;5.142;2023-05-20T01:58:58;102407.09;;;10.33;93.05
67840;BME280;54636;51.684;5.142;2023-05-20T02:01:23;102410.25;;;10.31;93.81
67840;BME280;54636;51.684;5.142;2023-05-20T02:03:49;102397.88;;;10.17;94.13
67840;BME280;54636;51.684;5.142;2023-05-20T02:06:14;102404.28;;;10.23;93.79
67840;BME280;54636;51.684;5.142;2023-05-20T02:08:40;102396.34;;;10.16;93.95
67840;BME280;54636;51.684;5.142;2023-05-20T02:11:05;102409.06;;;10.19;94.90
67840;BME280;54636;51.684;5.142;2023-05-20T02:13:31;102404.50;;;10.16;94.63
67840;BME280;54636;51.684;5.142;2023-05-20T02:15:56;102395.06;;;10.08;95.25
67840;BME280;54636;51.684;5.142;2023-05-20T02:18:22;102400.06;;;10.10;95.73
67840;BME280;54636;51.684;5.142;2023-05-20T02:20:47;102408.31;;;10.06;95.20
67840;BME280;54636;51.684;5.142;2023-05-20T02:23:12;102410.72;;;10.04;96.40
67840;BME280;54636;51.684;5.142;2023-05-20T02:25:39;102398.75;;;10.02;96.71
67840;BME280;54636;51.684;5.142;2023-05-20T02:28:05;102400.72;;;10.01;96.57
67840;BME280;54636;51.684;5.142;2023-05-20T02:30:36;102380.75;;;9.95;96.43
67840;BME280;54636;51.684;5.142;2023-05-20T02:33:01;102384.78;;;9.90;96.73
67840;BME280;54636;51.684;5.142;2023-05-20T02:35:26;102386.72;;;9.90;97.33
67840;BME280;54636;51.684;5.142;2023-05-20T02:37:52;102390.31;;;9.87;97.85
67840;BME280;54636;51.684;5.142;2023-05-20T02:40:17;102380.88;;;9.79;97.39
67840;BME280;54636;51.684;5.142;2023-05-20T02:42:43;102392.94;;;9.78;98.68
67840;BME280;54636;51.684;5.142;2023-05-20T02:45:08;102400.00;;;9.75;98.92
67840;BME280;54636;51.684;5.142;2023-05-20T02:47:34;102402.41;;;9.73;98.43
67840;BME280;54636;51.684;5.142;2023-05-20T02:49:59;102404.47;;;9.69;98.98
67840;BME280;54636;51.684;5.142;2023-05-20T02:52:25;102395.25;;;9.67;99.26
67840;BME280;54636;51.684;5.142;2023-05-20T02:54:50;102395.56;;;9.69;99.24
67840;BME280;54636;51.684;5.142;2023-05-20T02:57:16;102396.00;;;9.67;99.68
67840;BME280;54636;51.684;5.142;2023-05-20T02:59:42;102386.13;;;9.61;99.49
67840;BME280;54636;51.684;5.142;2023-05-20T03:02:07;102380.94;;;9.53;100.00
67840;BME280;54636;51.684;5.142;2023-05-20T03:04:33;102393.84;;;9.62;100.00
67840;BME280;54636;51.684;5.142;2023-05-20T03:07:05;102392.75;;;9.60;100.00
67840;BME280;54636;51.684;5.142;2023-05-20T03:09:32;102385.06;;;9.58;100.00
67840;BME280;54636;51.684;5.142;2023-05-20T03:11:57;102393.84;;;9.62;100.00
67840;BME280;54636;51.684;5.142;2023-05-20T03:14:23;102389.72;;;9.57;100.00
67840;BME280;54636;51.684;5.142;2023-05-20T03:16:48;102394.81;;;9.55;100.00
67840;BME280;54636;51.684;5.142;2023-05-20T03:19:13;102398.72;;;9.54;100.00
67840;BME280;54636;51.684;5.142;2023-05-20T03:21:39;102383.19;;;9.42;100.00
67840;BME280;54636;51.684;5.142;2023-05-20T03:24:05;102394.06;;;9.55;100.00
67840;BME280;54636;51.684;5.142;2023-05-20T03:26:31;102394.50;;;9.53;100.00
67840;BME280;54636;51.684;5.142;2023-05-20T03:28:58;102397.97;;;9.54;100.00
67840;BME280;54636;51.684;5.142;2023-05-20T03:31:23;102392.66;;;9.50;100.00
67840;BME280;54636;51.684;5.142;2023-05-20T03:33:50;102401.97;;;9.49;100.00
67840;BME280;54636;51.684;5.142;2023-05-20T03:36:15;102397.75;;;9.48;100.00
67840;BME280;54636;51.684;5.142;2023-05-20T03:38:41;102399.16;;;9.53;100.00
67840;BME280;54636;51.684;5.142;2023-05-20T03:41:06;102392.97;;;9.52;100.00
67840;BME280;54636;51.684;5.142;2023-05-20T03:43:32;102384.50;;;9.50;100.00
67840;BME280;54636;51.684;5.142;2023-05-20T03:45:57;102390.59;;;9.54;100.00
67840;BME280;54636;51.684;5.142;2023-05-20T03:48:22;102379.41;;;9.52;100.00
67840;BME280;54636;51.684;5.142;2023-05-20T03:50:48;102384.84;;;9.52;100.00
67840;BME280;54636;51.684;5.142;2023-05-20T03:53:14;102383.31;;;9.51;100.00
67840;BME280;54636;51.684;5.142;2023-05-20T03:55:39;102382.44;;;9.54;100.00
67840;BME280;54636;51.684;5.142;2023-05-20T03:58:04;102390.59;;;9.54;100.00
67840;BME280;54636;51.684;5.142;2023-05-20T04:00:30;102395.91;;;9.58;100.00
67840;BME280;54636;51.684;5.142;2023-05-20T04:02:56;102388.09;;;9.60;100.00
67840;BME280;54636;51.684;5.142;2023-05-20T04:05:22;102375.41;;;9.57;100.00
67840;BME280;54636;51.684;5.142;2023-05-20T04:07:48;102387.88;;;9.67;100.00
67840;BME280;54636;51.684;5.142;2023-05-20T04:10:14;102390.47;;;9.71;100.00
67840;BME280;54636;51.684;5.142;2023-05-20T04:12:39;102386.88;;;9.74;100.00
67840;BME280;54636;51.684;5.142;2023-05-20T04:15:05;102386.56;;;9.72;100.00
67840;BME280;54636;51.684;5.142;2023-05-20T04:17:31;102388.91;;;9.82;100.00
67840;BME280;54636;51.684;5.142;2023-05-20T04:19:57;102393.78;;;9.87;100.00
67840;BME280;54636;51.684;5.142;2023-05-20T04:22:24;102399.88;;;9.91;100.00
67840;BME280;54636;51.684;5.142;2023-05-20T04:24:50;102393.44;;;9.98;100.00
67840;BME280;54636;51.684;5.142;2023-05-20T04:27:15;102380.63;;;9.99;100.00
67840;BME280;54636;51.684;5.142;2023-05-20T04:29:41;102398.22;;;10.07;100.00
67840;BME280;54636;51.684;5.142;2023-05-20T04:32:13;102404.50;;;10.29;100.00
67840;BME280;54636;51.684;5.142;2023-05-20T04:34:39;102388.97;;;10.73;100.00
67840;BME280;54636;51.684;5.142;2023-05-20T04:37:04;102399.44;;;11.37;98.65
67840;BME280;54636;51.684;5.142;2023-05-20T04:39:32;102390.63;;;11.73;95.09
67840;BME280;54636;51.684;5.142;2023-05-20T04:41:58;102397.88;;;11.76;94.12
67840;BME280;54636;51.684;5.142;2023-05-20T04:44:24;102398.47;;;11.71;93.89
67840;BME280;54636;51.684;5.142;2023-05-20T04:46:50;102389.09;;;11.63;93.93
67840;BME280;54636;51.684;5.142;2023-05-20T04:49:16;102396.47;;;11.53;94.04
67840;BME280;54636;51.684;5.142;2023-05-20T04:51:42;102401.88;;;11.44;94.84
67840;BME280;54636;51.684;5.142;2023-05-20T04:54:08;102397.78;;;11.39;95.28
67840;BME280;54636;51.684;5.142;2023-05-20T04:56:33;102384.31;;;11.36;95.58
67840;BME280;54636;51.684;5.142;2023-05-20T04:58:59;102383.13;;;11.37;96.03
67840;BME280;54636;51.684;5.142;2023-05-20T05:01:24;102381.59;;;11.36;95.94
67840;BME280;54636;51.684;5.142;2023-05-20T05:03:50;102374.03;;;11.31;96.51
67840;BME280;54636;51.684;5.142;2023-05-20T05:06:15;102377.94;;;11.30;96.17
67840;BME280;54636;51.684;5.142;2023-05-20T05:08:40;102382.50;;;11.33;96.13
67840;BME280;54636;51.684;5.142;2023-05-20T05:11:07;102384.50;;;11.41;96.10
67840;BME280;54636;51.684;5.142;2023-05-20T05:13:32;102379.09;;;11.50;95.79
67840;BME280;54636;51.684;5.142;2023-05-20T05:15:59;102383.50;;;11.57;95.95
67840;BME280;54636;51.684;5.142;2023-05-20T05:18:25;102385.31;;;11.60;95.27
67840;BME280;54636;51.684;5.142;2023-05-20T05:21:00;102383.03;;;11.59;94.86
67840;BME280;54636;51.684;5.142;2023-05-20T05:23:26;102383.78;;;11.50;95.35
67840;BME280;54636;51.684;5.142;2023-05-20T05:25:52;102379.09;;;11.50;95.81
67840;BME280;54636;51.684;5.142;2023-05-20T05:28:18;102388.75;;;11.51;96.37
67840;BME280;54636;51.684;5.142;2023-05-20T05:30:43;102373.50;;;11.54;96.50
67840;BME280;54636;51.684;5.142;2023-05-20T05:33:09;102376.09;;;11.58;95.91
67840;BME280;54636;51.684;5.142;2023-05-20T05:35:35;102385.19;;;11.64;95.66
67840;BME280;54636;51.684;5.142;2023-05-20T05:38:00;102381.88;;;11.69;95.77
67840;BME280;54636;51.684;5.142;2023-05-20T05:40:26;102367.06;;;11.70;95.54
67840;BME280;54636;51.684;5.142;2023-05-20T05:42:51;102382.75;;;11.75;94.72
67840;BME280;54636;51.684;5.142;2023-05-20T05:45:16;102367.94;;;11.67;94.96
67840;BME280;54636;51.684;5.142;2023-05-20T05:47:42;102379.59;;;11.76;95.27
67840;BME280;54636;51.684;5.142;2023-05-20T05:50:08;102376.00;;;11.79;95.58
67840;BME280;54636;51.684;5.142;2023-05-20T05:52:34;102380.41;;;11.86;95.29
67840;BME280;54636;51.684;5.142;2023-05-20T05:55:01;102378.28;;;11.90;95.57
67840;BME280;54636;51.684;5.142;2023-05-20T05:57:26;102376.50;;;11.96;95.33
67840;BME280;54636;51.684;5.142;2023-05-20T05:59:51;102367.28;;;12.03;95.26
67840;BME280;54636;51.684;5.142;2023-05-20T06:02:17;102373.63;;;12.09;94.05
67840;BME280;54636;51.684;5.142;2023-05-20T06:04:42;102374.41;;;12.18;93.44
67840;BME280;54636;51.684;5.142;2023-05-20T06:07:08;102377.44;;;12.30;92.48
67840;BME280;54636;51.684;5.142;2023-05-20T06:09:33;102372.09;;;12.44;91.14
67840;BME280;54636;51.684;5.142;2023-05-20T06:11:59;102377.72;;;12.50;90.40
67840;BME280;54636;51.684;5.142;2023-05-20T06:14:24;102377.41;;;12.57;90.05
67840;BME280;54636;51.684;5.142;2023-05-20T06:16:50;102379.94;;;12.79;88.28
67840;BME280;54636;51.684;5.142;2023-05-20T06:19:15;102378.72;;;12.89;87.89
67840;BME280;54636;51.684;5.142;2023-05-20T06:21:40;102379.94;;;12.88;88.39
67840;BME280;54636;51.684;5.142;2023-05-20T06:24:06;102373.25;;;12.98;87.62
67840;BME280;54636;51.684;5.142;2023-05-20T06:26:31;102378.16;;;13.27;86.63
67840;BME280;54636;51.684;5.142;2023-05-20T06:28:56;102375.25;;;13.31;84.73
67840;BME280;54636;51.684;5.142;2023-05-20T06:31:22;102382.22;;;13.32;85.12
67840;BME280;54636;51.684;5.142;2023-05-20T06:33:47;102362.09;;;13.29;84.92
67840;BME280;54636;51.684;5.142;2023-05-20T06:36:13;102367.25;;;13.27;84.54
67840;BME280;54636;51.684;5.142;2023-05-20T06:38:38;102359.81;;;13.28;85.22
67840;BME280;54636;51.684;5.142;2023-05-20T06:41:03;102361.78;;;13.27;85.49
67840;BME280;54636;51.684;5.142;2023-05-20T06:43:29;102354.19;;;13.31;84.54
67840;BME280;54636;51.684;5.142;2023-05-20T06:45:55;102355.19;;;13.43;84.77
67840;BME280;54636;51.684;5.142;2023-05-20T06:48:21;102352.66;;;13.63;83.21
67840;BME280;54636;51.684;5.142;2023-05-20T06:50:46;102358.63;;;14.00;82.63
67840;BME280;54636;51.684;5.142;2023-05-20T06:53:12;102354.59;;;14.93;77.86
67840;BME280;54636;51.684;5.142;2023-05-20T06:55:37;102356.06;;;15.99;71.79
67840;BME280;54636;51.684;5.142;2023-05-20T06:58:02;102354.38;;;16.79;69.00
67840;BME280;54636;51.684;5.142;2023-05-20T07:00:28;102350.88;;;17.59;65.04
67840;BME280;54636;51.684;5.142;2023-05-20T07:02:53;102356.38;;;18.18;60.54
67840;BME280;54636;51.684;5.142;2023-05-20T07:05:18;102359.38;;;18.26;60.13
67840;BME280;54636;51.684;5.142;2023-05-20T07:07:44;102357.34;;;18.04;59.75
67840;BME280;54636;51.684;5.142;2023-05-20T07:10:10;102359.84;;;18.07;59.74
67840;BME280;54636;51.684;5.142;2023-05-20T07:12:35;102354.63;;;18.09;60.05
67840;BME280;54636;51.684;5.142;2023-05-20T07:15:00;102352.41;;;18.36;60.49
67840;BME280;54636;51.684;5.142;2023-05-20T07:17:26;102350.97;;;18.74;59.20
67840;BME280;54636;51.684;5.142;2023-05-20T07:19:55;102343.94;;;18.56;58.85
67840;BME280;54636;51.684;5.142;2023-05-20T07:22:20;102341.84;;;18.06;60.15
67840;BME280;54636;51.684;5.142;2023-05-20T07:24:46;102335.72;;;17.69;60.77
67840;BME280;54636;51.684;5.142;2023-05-20T07:27:11;102330.38;;;17.49;62.47
67840;BME280;54636;51.684;5.142;2023-05-20T07:29:37;102334.25;;;17.25;62.73
67840;BME280;54636;51.684;5.142;2023-05-20T07:32:03;102329.28;;;16.92;64.15
67840;BME280;54636;51.684;5.142;2023-05-20T07:34:29;102342.88;;;16.75;63.91
67840;BME280;54636;51.684;5.142;2023-05-20T07:36:56;102326.16;;;16.47;65.19
67840;BME280;54636;51.684;5.142;2023-05-20T07:39:22;102318.50;;;16.31;65.83
67840;BME280;54636;51.684;5.142;2023-05-20T07:41:48;102322.94;;;16.23;67.00
67840;BME280;54636;51.684;5.142;2023-05-20T07:44:13;102333.44;;;16.25;66.60
67840;BME280;54636;51.684;5.142;2023-05-20T07:46:39;102310.16;;;16.14;67.87
67840;BME280;54636;51.684;5.142;2023-05-20T07:49:06;102323.19;;;16.25;67.33
67840;BME280;54636;51.684;5.142;2023-05-20T07:51:31;102323.69;;;16.24;66.65
67840;BME280;54636;51.684;5.142;2023-05-20T07:53:57;102313.78;;;16.32;65.33
67840;BME280;54636;51.684;5.142;2023-05-20T07:56:23;102307.28;;;16.29;65.76
67840;BME280;54636;51.684;5.142;2023-05-20T07:58:53;102310.56;;;16.33;65.84
67840;BME280;54636;51.684;5.142;2023-05-20T08:01:19;102298.19;;;16.43;64.47
67840;BME280;54636;51.684;5.142;2023-05-20T08:03:45;102338.72;;;16.60;63.35
67840;BME280;54636;51.684;5.142;2023-05-20T08:06:10;102312.13;;;16.66;62.85
67840;BME280;54636;51.684;5.142;2023-05-20T08:08:36;102307.47;;;16.77;65.12
67840;BME280;54636;51.684;5.142;2023-05-20T08:11:01;102310.31;;;16.89;63.31
67840;BME280;54636;51.684;5.142;2023-05-20T08:13:28;102304.41;;;17.07;63.21
67840;BME280;54636;51.684;5.142;2023-05-20T08:15:53;102296.44;;;17.09;59.67
67840;BME280;54636;51.684;5.142;2023-05-20T08:18:19;102301.44;;;17.10;58.65
67840;BME280;54636;51.684;5.142;2023-05-20T08:20:44;102294.25;;;17.19;59.90
67840;BME280;54636;51.684;5.142;2023-05-20T08:23:10;102302.81;;;17.32;59.13
67840;BME280;54636;51.684;5.142;2023-05-20T08:25:35;102291.59;;;17.35;58.22
67840;BME280;54636;51.684;5.142;2023-05-20T08:28:02;102301.59;;;17.38;58.18
67840;BME280;54636;51.684;5.142;2023-05-20T08:30:30;102302.66;;;17.58;57.23
67840;BME280;54636;51.684;5.142;2023-05-20T08:32:55;102283.94;;;17.62;57.68
67840;BME280;54636;51.684;5.142;2023-05-20T08:35:22;102286.03;;;17.78;56.74
67840;BME280;54636;51.684;5.142;2023-05-20T08:37:47;102298.06;;;17.86;55.60
67840;BME280;54636;51.684;5.142;2023-05-20T08:40:13;102285.75;;;17.70;54.62
67840;BME280;54636;51.684;5.142;2023-05-20T08:42:42;102289.75;;;17.69;55.18
67840;BME280;54636;51.684;5.142;2023-05-20T08:45:10;102279.53;;;17.70;55.39
67840;BME280;54636;51.684;5.142;2023-05-20T08:47:40;102277.75;;;17.67;55.72
67840;BME280;54636;51.684;5.142;2023-05-20T08:50:08;102287.75;;;17.70;55.12
67840;BME280;54636;51.684;5.142;2023-05-20T08:52:36;102285.53;;;17.74;55.05
67840;BME280;54636;51.684;5.142;2023-05-20T08:55:03;102288.34;;;17.96;56.12
67840;BME280;54636;51.684;5.142;2023-05-20T08:57:32;102280.38;;;18.09;53.65
67840;BME280;54636;51.684;5.142;2023-05-20T08:59:58;102273.63;;;18.10;53.56
67840;BME280;54636;51.684;5.142;2023-05-20T09:02:24;102283.13;;;18.32;53.00
67840;BME280;54636;51.684;5.142;2023-05-20T09:04:49;102264.88;;;18.46;51.84
67840;BME280;54636;51.684;5.142;2023-05-20T09:07:26;102271.91;;;18.69;53.03
67840;BME280;54636;51.684;5.142;2023-05-20T09:09:51;102267.84;;;18.92;50.80
67840;BME280;54636;51.684;5.142;2023-05-20T09:12:19;102269.53;;;19.18;49.77
67840;BME280;54636;51.684;5.142;2023-05-20T09:14:45;102277.78;;;19.23;48.13
67840;BME280;54636;51.684;5.142;2023-05-20T09:17:11;102282.09;;;18.96;47.57
67840;BME280;54636;51.684;5.142;2023-05-20T09:19:37;102272.41;;;18.79;48.70
67840;BME280;54636;51.684;5.142;2023-05-20T09:22:02;102273.34;;;18.98;47.88
67840;BME280;54636;51.684;5.142;2023-05-20T09:24:29;102260.09;;;18.91;48.31
67840;BME280;54636;51.684;5.142;2023-05-20T09:26:54;102251.81;;;19.02;48.71
67840;BME280;54636;51.684;5.142;2023-05-20T09:29:20;102261.56;;;19.03;49.34
67840;BME280;54636;51.684;5.142;2023-05-20T09:31:49;102277.34;;;18.97;47.61
67840;BME280;54636;51.684;5.142;2023-05-20T09:34:15;102262.91;;;18.63;49.45
67840;BME280;54636;51.684;5.142;2023-05-20T09:36:42;102264.13;;;18.56;48.13
67840;BME280;54636;51.684;5.142;2023-05-20T09:39:12;102257.13;;;18.50;49.71
67840;BME280;54636;51.684;5.142;2023-05-20T09:41:48;102243.88;;;18.65;50.36
67840;BME280;54636;51.684;5.142;2023-05-20T09:44:17;102251.56;;;19.00;48.67
67840;BME280;54636;51.684;5.142;2023-05-20T09:46:44;102257.91;;;18.72;47.81
67840;BME280;54636;51.684;5.142;2023-05-20T09:49:11;102250.13;;;18.60;47.89
67840;BME280;54636;51.684;5.142;2023-05-20T09:51:37;102251.41;;;18.64;48.38
67840;BME280;54636;51.684;5.142;2023-05-20T09:54:04;102235.59;;;18.82;49.00
67840;BME280;54636;51.684;5.142;2023-05-20T09:56:33;102241.78;;;19.10;49.38
67840;BME280;54636;51.684;5.142;2023-05-20T09:58:59;102246.22;;;19.24;47.11
67840;BME280;54636;51.684;5.142;2023-05-20T10:01:26;102247.75;;;19.20;47.08
67840;BME280;54636;51.684;5.142;2023-05-20T10:03:52;102241.97;;;19.23;47.18
67840;BME280;54636;51.684;5.142;2023-05-20T10:09:31;102250.78;;;19.11;47.52
67840;BME280;54636;51.684;5.142;2023-05-20T10:15:22;102226.47;;;19.20;47.90
67840;BME280;54636;51.684;5.142;2023-05-20T10:20:27;102218.63;;;19.41;48.16
67840;BME280;54636;51.684;5.142;2023-05-20T10:22:57;102218.00;;;19.65;49.61
67840;BME280;54636;51.684;5.142;2023-05-20T10:25:26;102228.94;;;19.76;45.41
67840;BME280;54636;51.684;5.142;2023-05-20T10:28:08;102230.84;;;19.51;46.95
67840;BME280;54636;51.684;5.142;2023-05-20T10:30:34;102228.97;;;19.18;46.34
67840;BME280;54636;51.684;5.142;2023-05-20T10:33:03;102236.56;;;18.95;47.67
67840;BME280;54636;51.684;5.142;2023-05-20T10:35:30;102225.84;;;18.81;46.37
67840;BME280;54636;51.684;5.142;2023-05-20T10:38:10;102222.59;;;18.82;46.97
67840;BME280;54636;51.684;5.142;2023-05-20T10:40:35;102207.59;;;18.78;47.62
67840;BME280;54636;51.684;5.142;2023-05-20T10:43:11;102210.00;;;19.03;49.97
67840;BME280;54636;51.684;5.142;2023-05-20T10:45:51;102208.25;;;19.00;48.25
67840;BME280;54636;51.684;5.142;2023-05-20T10:48:31;102212.34;;;18.77;49.26
67840;BME280;54636;51.684;5.142;2023-05-20T10:51:00;102201.28;;;18.88;49.13
67840;BME280;54636;51.684;5.142;2023-05-20T10:53:37;102225.06;;;18.86;47.88
67840;BME280;54636;51.684;5.142;2023-05-20T10:56:03;102209.28;;;18.86;48.41
67840;BME280;54636;51.684;5.142;2023-05-20T10:58:36;102185.75;;;18.91;49.00
67840;BME280;54636;51.684;5.142;2023-05-20T11:01:02;102205.47;;;19.12;49.48
67840;BME280;54636;51.684;5.142;2023-05-20T11:03:28;102189.56;;;19.40;49.08
67840;BME280;54636;51.684;5.142;2023-05-20T11:05:53;102187.25;;;19.50;48.51
67840;BME280;54636;51.684;5.142;2023-05-20T11:08:19;102176.31;;;19.33;48.61
67840;BME280;54636;51.684;5.142;2023-05-20T11:10:46;102174.59;;;19.30;48.86
67840;BME280;54636;51.684;5.142;2023-05-20T11:13:12;102188.88;;;19.28;48.23
67840;BME280;54636;51.684;5.142;2023-05-20T11:15:38;102192.53;;;19.48;47.90
67840;BME280;54636;51.684;5.142;2023-05-20T11:18:04;102186.72;;;19.57;48.07
67840;BME280;54636;51.684;5.142;2023-05-20T11:20:30;102187.88;;;19.72;46.83
67840;BME280;54636;51.684;5.142;2023-05-20T11:22:59;102172.63;;;19.66;47.33
67840;BME280;54636;51.684;5.142;2023-05-20T11:25:25;102162.13;;;19.64;46.76
67840;BME280;54636;51.684;5.142;2023-05-20T11:27:52;102164.16;;;19.94;48.32
67840;BME280;54636;51.684;5.142;2023-05-20T11:30:18;102165.16;;;20.21;47.01
67840;BME280;54636;51.684;5.142;2023-05-20T11:33:01;102168.81;;;20.34;45.99
67840;BME280;54636;51.684;5.142;2023-05-20T11:35:28;102168.94;;;19.93;45.19
67840;BME280;54636;51.684;5.142;2023-05-20T11:37:55;102156.84;;;19.66;46.28
67840;BME280;54636;51.684;5.142;2023-05-20T11:40:25;102163.66;;;19.60;47.74
67840;BME280;54636;51.684;5.142;2023-05-20T11:42:53;102156.09;;;19.66;47.01
67840;BME280;54636;51.684;5.142;2023-05-20T11:45:18;102165.84;;;19.67;46.78
67840;BME280;54636;51.684;5.142;2023-05-20T11:47:44;102153.06;;;19.69;47.08
67840;BME280;54636;51.684;5.142;2023-05-20T11:50:10;102150.94;;;19.87;47.82
67840;BME280;54636;51.684;5.142;2023-05-20T11:52:40;102156.13;;;19.96;47.22
67840;BME280;54636;51.684;5.142;2023-05-20T11:55:09;102156.34;;;19.98;47.14
67840;BME280;54636;51.684;5.142;2023-05-20T11:57:36;102151.22;;;19.83;46.67
67840;BME280;54636;51.684;5.142;2023-05-20T12:00:02;102152.34;;;19.63;48.03
67840;BME280;54636;51.684;5.142;2023-05-20T12:02:31;102151.41;;;19.55;48.12
67840;BME280;54636;51.684;5.142;2023-05-20T12:04:56;102152.38;;;19.58;48.56
67840;BME280;54636;51.684;5.142;2023-05-20T12:07:22;102136.94;;;19.79;48.75
67840;BME280;54636;51.684;5.142;2023-05-20T12:09:47;102139.47;;;20.07;47.27
67840;BME280;54636;51.684;5.142;2023-05-20T12:12:13;102134.88;;;20.15;47.55
67840;BME280;54636;51.684;5.142;2023-05-20T12:14:38;102148.28;;;20.05;46.07
67840;BME280;54636;51.684;5.142;2023-05-20T12:17:04;102131.25;;;20.01;47.75
67840;BME280;54636;51.684;5.142;2023-05-20T12:19:29;102131.41;;;20.39;47.03
67840;BME280;54636;51.684;5.142;2023-05-20T12:21:55;102138.19;;;20.81;46.08
67840;BME280;54636;51.684;5.142;2023-05-20T12:24:20;102126.50;;;20.94;46.77
67840;BME280;54636;51.684;5.142;2023-05-20T12:26:45;102116.06;;;21.05;45.13
67840;BME280;54636;51.684;5.142;2023-05-20T12:29:11;102130.31;;;20.91;44.51
67840;BME280;54636;51.684;5.142;2023-05-20T12:31:36;102114.41;;;20.78;44.89
67840;BME280;54636;51.684;5.142;2023-05-20T12:34:02;102112.09;;;20.82;44.29
67840;BME280;54636;51.684;5.142;2023-05-20T12:36:27;102106.94;;;20.73;44.02
67840;BME280;54636;51.684;5.142;2023-05-20T12:38:53;102131.13;;;20.67;44.68
67840;BME280;54636;51.684;5.142;2023-05-20T12:41:18;102107.06;;;20.37;45.47
67840;BME280;54636;51.684;5.142;2023-05-20T12:43:43;102123.28;;;20.22;45.59
67840;BME280;54636;51.684;5.142;2023-05-20T12:46:09;102130.00;;;20.27;46.12
67840;BME280;54636;51.684;5.142;2023-05-20T12:48:34;102099.97;;;20.48;46.56
67840;BME280;54636;51.684;5.142;2023-05-20T12:51:00;102127.25;;;20.76;45.49
67840;BME280;54636;51.684;5.142;2023-05-20T12:53:26;102111.19;;;20.93;45.14
67840;BME280;54636;51.684;5.142;2023-05-20T12:55:51;102116.72;;;21.12;43.76